Time;durP1;ratioP1;P1;durP2;ratioP2;P2;SDS_P1;SDS_P2;PMS_P1;PMS_P2;Temp;Humidity;BMP_temperature;BMP_pressure;BME280_temperature;BME280_humidity;BME280_pressure;Samples;Min_cycle;Max_cycle;Signal;HPM_P1;HPM_P2
2022/07/18 00:00:39;;;;;;;1999.90;999.90;;;25.20;75.10;;;;;;5054534;28;20404;-74
2022/07/18 00:03:05;;;;;;;1999.90;999.90;;;25.20;75.30;;;;;;5048164;28;20028;-74
2022/07/18 00:05:31;;;;;;;1999.90;999.90;;;25.10;75.50;;;;;;5054171;28;20025;-74
2022/07/18 00:07:57;;;;;;;1999.90;999.90;;;25.10;75.70;;;;;;5054211;28;20103;-74
2022/07/18 00:10:23;;;;;;;1999.90;999.90;;;25.00;75.90;;;;;;5049228;28;20481;-75
2022/07/18 00:12:49;;;;;;;1999.90;999.90;;;25.00;76.00;;;;;;5049372;28;20032;-75
2022/07/18 00:15:15;;;;;;;1999.90;999.90;;;24.90;76.10;;;;;;5054273;28;20025;-74
2022/07/18 00:17:41;;;;;;;1999.90;999.90;;;24.80;76.40;;;;;;5053749;28;20174;-74
2022/07/18 00:20:09;;;;;;;1999.90;999.90;;;24.70;76.60;;;;;;5035765;28;20083;-74
2022/07/18 00:22:35;;;;;;;1999.90;999.90;;;24.60;77.60;;;;;;5053620;28;20025;-74
2022/07/18 00:25:01;;;;;;;1999.90;999.90;;;24.50;77.20;;;;;;5053801;28;20437;-74
2022/07/18 00:27:27;;;;;;;1999.90;999.90;;;24.50;77.40;;;;;;5053788;28;20032;-74
2022/07/18 00:29:53;;;;;;;1999.90;999.90;;;24.40;78.10;;;;;;5053860;28;20381;-74
2022/07/18 00:32:19;;;;;;;1999.90;999.90;;;24.30;77.60;;;;;;5053184;28;20036;-74
2022/07/18 00:34:45;;;;;;;1999.90;999.90;;;24.30;78.20;;;;;;5043816;28;20026;-75
2022/07/18 00:37:11;;;;;;;1999.90;999.90;;;24.20;78.30;;;;;;5048762;28;20028;-75
2022/07/18 00:39:37;;;;;;;1999.90;999.90;;;24.10;78.50;;;;;;5053468;28;20033;-74
2022/07/18 00:42:03;;;;;;;1999.90;999.90;;;24.00;78.90;;;;;;5045218;28;20028;-74
2022/07/18 00:44:29;;;;;;;1999.90;999.90;;;23.90;79.10;;;;;;5053040;28;20075;-74
2022/07/18 00:47:01;;;;;;;1999.90;999.90;;;23.90;79.50;;;;;;5053557;28;20021;-74
2022/07/18 00:49:27;;;;;;;1999.90;999.90;;;23.80;79.60;;;;;;5050932;28;20029;-74
2022/07/18 00:51:54;;;;;;;1999.90;999.90;;;23.80;79.80;;;;;;5063676;28;20021;-74
2022/07/18 00:54:20;;;;;;;1999.90;999.90;;;23.80;80.00;;;;;;5053260;28;20124;-74
2022/07/18 00:56:49;;;;;;;1999.90;999.90;;;23.80;80.30;;;;;;5053488;28;20431;-74
2022/07/18 00:59:16;;;;;;;1999.90;999.90;;;23.80;80.50;;;;;;5053413;28;20032;-74
2022/07/18 01:01:48;;;;;;;1999.90;999.90;;;23.70;80.50;;;;;;5053127;28;20017;-74
2022/07/18 01:04:19;;;;;;;1999.90;999.90;;;23.80;80.60;;;;;;5051221;28;20060;-74
2022/07/18 01:06:47;;;;;;;1999.90;999.90;;;23.70;80.70;;;;;;5052513;28;20017;-74
2022/07/18 01:09:13;;;;;;;1999.90;999.90;;;23.60;80.80;;;;;;5053131;28;20032;-74
2022/07/18 01:11:40;;;;;;;1999.90;999.90;;;23.60;81.00;;;;;;5043782;28;20013;-74
2022/07/18 01:14:07;;;;;;;1999.90;999.90;;;23.60;81.20;;;;;;5052670;28;20025;-74
2022/07/18 01:16:34;;;;;;;1999.90;999.90;;;23.60;81.10;;;;;;5052940;28;20021;-74
2022/07/18 01:19:00;;;;;;;1999.90;999.90;;;23.60;81.20;;;;;;5052931;28;20359;-74
2022/07/18 01:21:27;;;;;;;1999.90;999.90;;;23.60;81.30;;;;;;5052644;28;20033;-74
2022/07/18 01:23:53;;;;;;;1999.90;999.90;;;23.60;81.40;;;;;;5052657;28;20036;-74
2022/07/18 01:26:19;;;;;;;1999.90;999.90;;;23.60;81.30;;;;;;5052861;28;20476;-74
2022/07/18 01:28:46;;;;;;;1999.90;999.90;;;23.60;81.50;;;;;;5052752;28;20013;-74
2022/07/18 01:31:13;;;;;;;1999.90;999.90;;;23.60;81.50;;;;;;5053084;28;20412;-74
2022/07/18 01:33:40;;;;;;;1999.90;999.90;;;23.60;81.40;;;;;;5050458;28;20029;-74
2022/07/18 01:36:07;;;;;;;1999.90;999.90;;;23.60;81.30;;;;;;5039553;28;20596;-74
2022/07/18 01:38:34;;;;;;;1999.90;999.90;;;23.70;81.20;;;;;;5052727;28;20027;-75
2022/07/18 01:41:00;;;;;;;1999.90;999.90;;;23.70;81.20;;;;;;5039076;28;20079;-74
2022/07/18 01:43:27;;;;;;;1999.90;999.90;;;23.70;81.30;;;;;;5053019;28;20035;-74
2022/07/18 01:45:54;;;;;;;1999.90;999.90;;;23.70;81.20;;;;;;5038862;28;20119;-74
2022/07/18 01:48:23;;;;;;;1999.90;999.90;;;23.70;81.30;;;;;;5052545;28;20080;-74
2022/07/18 01:50:49;;;;;;;1999.90;999.90;;;23.70;81.50;;;;;;5060161;28;20053;-74
2022/07/18 01:53:15;;;;;;;1999.90;999.90;;;23.70;81.40;;;;;;5058008;28;20511;-74
2022/07/18 01:55:41;;;;;;;1999.90;999.90;;;23.60;81.30;;;;;;5052435;28;20025;-74
2022/07/18 01:58:07;;;;;;;1999.90;999.90;;;23.60;81.40;;;;;;5052731;28;20075;-74
2022/07/18 02:00:34;;;;;;;1999.90;999.90;;;23.60;81.40;;;;;;5052173;28;20029;-74
2022/07/18 02:03:00;;;;;;;1999.90;999.90;;;23.60;81.40;;;;;;5050573;28;20040;-75
2022/07/18 02:05:26;;;;;;;1999.90;999.90;;;23.60;81.30;;;;;;5052215;28;20036;-75
2022/07/18 02:07:52;;;;;;;1999.90;999.90;;;23.50;81.50;;;;;;5052514;28;20021;-74
2022/07/18 02:10:20;;;;;;;1999.90;999.90;;;23.40;81.70;;;;;;5048175;28;20032;-74
2022/07/18 02:12:46;;;;;;;1999.90;999.90;;;23.40;81.90;;;;;;5047943;28;20070;-74
2022/07/18 02:15:14;;;;;;;1999.90;999.90;;;23.30;82.00;;;;;;5052540;28;20091;-74
2022/07/18 02:17:41;;;;;;;1999.90;999.90;;;23.20;82.20;;;;;;5052220;28;20021;-74
2022/07/18 02:20:09;;;;;;;1999.90;999.90;;;23.20;82.60;;;;;;5052169;28;20384;-74
2022/07/18 02:22:35;;;;;;;1999.90;999.90;;;23.10;82.60;;;;;;5052146;28;20018;-74
2022/07/18 02:25:02;;;;;;;1999.90;999.90;;;23.10;82.80;;;;;;5052068;28;20096;-74
2022/07/18 02:27:28;;;;;;;1999.90;999.90;;;23.00;82.80;;;;;;5052176;28;20078;-74
2022/07/18 02:29:55;;;;;;;1999.90;999.90;;;23.00;83.10;;;;;;5052384;28;20068;-74
2022/07/18 02:32:23;;;;;;;1999.90;999.90;;;23.00;83.20;;;;;;5065047;28;20500;-74
2022/07/18 02:34:48;;;;;;;1999.90;999.90;;;22.90;83.10;;;;;;5050672;28;20028;-74
2022/07/18 02:37:15;;;;;;;1999.90;999.90;;;22.90;83.30;;;;;;5052243;28;20017;-75
2022/07/18 02:39:41;;;;;;;1999.90;999.90;;;22.80;83.40;;;;;;5051935;28;20105;-74
2022/07/18 02:42:07;;;;;;;1999.90;999.90;;;22.80;83.60;;;;;;5051888;28;20067;-74
2022/07/18 02:44:33;;;;;;;1999.90;999.90;;;22.70;84.00;;;;;;5036620;28;20476;-74
2022/07/18 02:46:59;;;;;;;1999.90;999.90;;;22.70;83.80;;;;;;5055203;28;20017;-74
2022/07/18 02:49:28;;;;;;;1999.90;999.90;;;22.60;84.10;;;;;;5053189;28;20124;-74
2022/07/18 02:52:00;;;;;;;1999.90;999.90;;;22.60;84.30;;;;;;5066494;28;20032;-74
2022/07/18 02:54:29;;;;;;;1999.90;999.90;;;22.50;84.40;;;;;;5055539;28;20031;-74
2022/07/18 02:56:55;;;;;;;1999.90;999.90;;;22.50;84.60;;;;;;5055499;28;20108;-74
2022/07/18 02:59:21;;;;;;;1999.90;999.90;;;22.50;84.80;;;;;;5055655;28;20369;-74
2022/07/18 03:01:49;;;;;;;1999.90;999.90;;;22.50;85.00;;;;;;5055289;28;20040;-74
2022/07/18 03:04:15;;;;;;;1999.90;999.90;;;22.40;85.10;;;;;;5053823;28;20025;-74
2022/07/18 03:06:41;;;;;;;1999.90;999.90;;;22.40;85.10;;;;;;5055263;28;20075;-74
2022/07/18 03:09:08;;;;;;;1999.90;999.90;;;22.40;85.20;;;;;;5055304;28;20029;-74
2022/07/18 03:11:34;;;;;;;1999.90;999.90;;;22.40;85.10;;;;;;5044985;28;20013;-74
2022/07/18 03:14:00;;;;;;;1999.90;999.90;;;22.40;85.20;;;;;;5055586;28;20029;-74
2022/07/18 03:16:26;;;;;;;1999.90;999.90;;;22.50;85.10;;;;;;5055169;28;20070;-74
2022/07/18 03:18:51;;;;;;;1999.90;999.90;;;22.50;85.10;;;;;;5054967;28;20124;-74
2022/07/18 03:21:17;;;;;;;1999.90;999.90;;;22.40;85.10;;;;;;5055037;28;20029;-74
2022/07/18 03:23:43;;;;;;;1999.90;999.90;;;22.40;85.40;;;;;;5055354;28;20025;-74
2022/07/18 03:26:09;;;;;;;1999.90;999.90;;;22.40;85.40;;;;;;5054792;28;20071;-74
2022/07/18 03:28:35;;;;;;;1999.90;999.90;;;22.40;85.50;;;;;;5055044;28;20028;-74
2022/07/18 03:31:01;;;;;;;1999.90;999.90;;;22.30;85.40;;;;;;5055606;28;20041;-74
2022/07/18 03:33:27;;;;;;;1999.90;999.90;;;22.30;85.70;;;;;;5053228;28;20029;-74
2022/07/18 03:35:53;;;;;;;1999.90;999.90;;;22.30;85.70;;;;;;5054891;28;20028;-74
2022/07/18 03:38:19;;;;;;;1999.90;999.90;;;22.30;85.80;;;;;;5049475;28;20480;-74
2022/07/18 03:40:45;;;;;;;1999.90;999.90;;;22.20;85.80;;;;;;5051956;28;20032;-74
2022/07/18 03:43:12;;;;;;;1999.90;999.90;;;22.20;85.80;;;;;;5054691;28;20025;-74
2022/07/18 03:45:38;;;;;;;1999.90;999.90;;;22.20;85.90;;;;;;5054617;28;20083;-74
2022/07/18 03:48:04;;;;;;;1999.90;999.90;;;22.20;86.00;;;;;;5054087;28;20029;-74
2022/07/18 03:50:30;;;;;;;1999.90;999.90;;;22.30;86.00;;;;;;5053624;28;20056;-74
2022/07/18 03:52:56;;;;;;;1999.90;999.90;;;22.20;86.40;;;;;;5062667;28;20057;-74
2022/07/18 03:55:22;;;;;;;1999.90;999.90;;;22.30;85.70;;;;;;5053754;28;20024;-74
2022/07/18 03:57:49;;;;;;;1999.90;999.90;;;22.30;85.60;;;;;;5054521;28;20033;-75
2022/07/18 04:00:15;;;;;;;1999.90;999.90;;;22.30;85.60;;;;;;5054408;28;20033;-74
2022/07/18 04:02:44;;;;;;;1999.90;999.90;;;22.30;85.60;;;;;;5052940;28;20029;-73
2022/07/18 04:05:10;;;;;;;1999.90;999.90;;;22.30;85.70;;;;;;5052522;28;20029;-74
2022/07/18 04:07:37;;;;;;;1999.90;999.90;;;22.30;85.60;;;;;;5044263;28;20021;-74
2022/07/18 04:10:05;;;;;;;1999.90;999.90;;;22.30;85.70;;;;;;5051955;28;20158;-75
2022/07/18 04:12:31;;;;;;;1999.90;999.90;;;22.30;85.70;;;;;;5046761;28;20071;-74
2022/07/18 04:14:58;;;;;;;1999.90;999.90;;;22.30;85.60;;;;;;5053486;28;20025;-74
2022/07/18 04:17:24;;;;;;;1999.90;999.90;;;22.30;85.80;;;;;;5054033;28;20040;-74
2022/07/18 04:19:50;;;;;;;1999.90;999.90;;;22.30;85.60;;;;;;5053940;28;20040;-74
2022/07/18 04:22:16;;;;;;;1999.90;999.90;;;22.20;85.60;;;;;;5053949;28;20029;-74
2022/07/18 04:24:42;;;;;;;1999.90;999.90;;;22.20;85.80;;;;;;5053699;28;20033;-74
2022/07/18 04:27:08;;;;;;;1999.90;999.90;;;22.20;85.90;;;;;;5054026;28;20472;-74
2022/07/18 04:29:36;;;;;;;1999.90;999.90;;;22.20;86.00;;;;;;5053481;28;20483;-74
2022/07/18 04:32:02;;;;;;;1999.90;999.90;;;22.10;86.00;;;;;;5053429;28;20086;-74
2022/07/18 04:34:28;;;;;;;1999.90;999.90;;;22.10;86.20;;;;;;5031406;28;20025;-74
2022/07/18 04:36:54;;;;;;;1999.90;999.90;;;22.10;86.10;;;;;;5053355;28;20025;-74
2022/07/18 04:39:20;;;;;;;1999.90;999.90;;;22.10;86.20;;;;;;5053469;28;20025;-74
2022/07/18 04:41:47;;;;;;;1999.90;999.90;;;22.10;86.30;;;;;;5044448;28;20075;-74
2022/07/18 04:44:13;;;;;;;1999.90;999.90;;;22.10;86.30;;;;;;5052725;28;20162;-74
2022/07/18 04:46:39;;;;;;;1999.90;999.90;;;22.10;86.50;;;;;;5053573;28;20025;-74
2022/07/18 04:49:05;;;;;;;1999.90;999.90;;;22.10;86.40;;;;;;5052870;28;20507;-74
2022/07/18 04:51:32;;;;;;;1999.90;999.90;;;22.10;86.30;;;;;;5055193;28;20021;-74
2022/07/18 04:53:58;;;;;;;1999.90;999.90;;;22.10;86.50;;;;;;5052320;28;20032;-74
2022/07/18 04:56:24;;;;;;;1999.90;999.90;;;22.10;86.60;;;;;;5035393;28;20033;-74
2022/07/18 04:58:50;;;;;;;1999.90;999.90;;;22.10;86.60;;;;;;5053322;28;20032;-74
2022/07/18 05:01:16;;;;;;;1999.90;999.90;;;22.10;86.60;;;;;;5057629;28;20025;-74
2022/07/18 05:03:42;;;;;;;1999.90;999.90;;;22.10;86.60;;;;;;5051532;28;20021;-74
2022/07/18 05:06:09;;;;;;;1999.90;999.90;;;22.10;86.60;;;;;;5052615;28;20036;-73
2022/07/18 05:08:34;;;;;;;1999.90;999.90;;;22.00;86.60;;;;;;5052494;28;20436;-74
2022/07/18 05:11:00;;;;;;;1999.90;999.90;;;22.00;86.70;;;;;;5043487;28;20105;-74
2022/07/18 05:13:26;;;;;;;1999.90;999.90;;;22.00;86.70;;;;;;5052324;28;20092;-74
2022/07/18 05:15:52;;;;;;;1999.90;999.90;;;22.10;86.50;;;;;;5052878;28;20025;-74
2022/07/18 05:18:18;;;;;;;1999.90;999.90;;;22.10;86.50;;;;;;5052898;28;20032;-74
2022/07/18 05:20:44;;;;;;;1999.90;999.90;;;22.20;86.50;;;;;;5034906;28;20480;-74
2022/07/18 05:23:13;;;;;;;1999.90;999.90;;;22.20;86.40;;;;;;5034784;28;20492;-74
2022/07/18 05:25:39;;;;;;;1999.90;999.90;;;22.30;86.50;;;;;;5052690;28;20032;-74
2022/07/18 05:28:05;;;;;;;1999.90;999.90;;;22.30;86.50;;;;;;5052399;28;20062;-74
2022/07/18 05:30:31;;;;;;;1999.90;999.90;;;22.20;86.50;;;;;;5052225;28;20053;-74
2022/07/18 05:32:57;;;;;;;1999.90;999.90;;;22.30;86.60;;;;;;5053624;28;20025;-74
2022/07/18 05:35:23;;;;;;;1999.90;999.90;;;22.30;86.50;;;;;;5050864;28;20445;-75
2022/07/18 05:37:49;;;;;;;1999.90;999.90;;;22.40;86.40;;;;;;5052542;28;20059;-75
2022/07/18 05:40:16;;;;;;;1999.90;999.90;;;22.40;86.40;;;;;;5052381;28;20031;-74
2022/07/18 05:42:42;;;;;;;1999.90;999.90;;;22.50;86.00;;;;;;5034523;28;20017;-75
2022/07/18 05:45:09;;;;;;;1999.90;999.90;;;22.60;86.00;;;;;;5051136;28;20033;-74
2022/07/18 05:47:35;;;;;;;1999.90;999.90;;;22.60;85.90;;;;;;5022134;28;20024;-74
2022/07/18 05:50:01;;;;;;;1999.90;999.90;;;22.70;85.70;;;;;;5053967;28;20074;-74
2022/07/18 05:52:27;;;;;;;1999.90;999.90;;;22.70;85.60;;;;;;5064410;28;20025;-74
2022/07/18 05:54:53;;;;;;;1999.90;999.90;;;22.90;85.70;;;;;;5034070;28;20107;-74
2022/07/18 05:57:20;;;;;;;1999.90;999.90;;;22.90;85.30;;;;;;5052376;28;20047;-75
2022/07/18 05:59:46;;;;;;;1999.90;999.90;;;23.10;85.20;;;;;;5034514;28;20025;-75
2022/07/18 06:02:12;;;;;;;1999.90;999.90;;;23.20;85.00;;;;;;5051513;28;20040;-75
2022/07/18 06:04:38;;;;;;;1999.90;999.90;;;23.20;84.70;;;;;;5050985;28;20025;-74
2022/07/18 06:07:04;;;;;;;1999.90;999.90;;;23.40;84.50;;;;;;5050892;28;20079;-75
2022/07/18 06:09:30;;;;;;;1999.90;999.90;;;23.40;84.30;;;;;;5051443;28;20086;-75
2022/07/18 06:11:59;;;;;;;1999.90;999.90;;;23.50;84.20;;;;;;5051099;28;20023;-75
2022/07/18 06:14:27;;;;;;;1999.90;999.90;;;23.60;84.30;;;;;;5052428;28;20550;-74
2022/07/18 06:16:53;;;;;;;1999.90;999.90;;;23.70;84.00;;;;;;5034687;28;20019;-74
2022/07/18 06:19:19;;;;;;;1999.90;999.90;;;23.80;83.80;;;;;;5062599;28;20503;-74
2022/07/18 06:21:46;;;;;;;1999.90;999.90;;;23.90;84.00;;;;;;5055042;28;20063;-75
2022/07/18 06:24:12;;;;;;;1999.90;999.90;;;24.00;83.10;;;;;;5054784;28;20503;-74
2022/07/18 06:26:38;;;;;;;1999.90;999.90;;;24.10;83.10;;;;;;5054919;28;20021;-75
2022/07/18 06:29:03;;;;;;;1999.90;999.90;;;24.20;82.90;;;;;;5051280;28;20384;-75
2022/07/18 06:31:29;;;;;;;1999.90;999.90;;;24.40;82.60;;;;;;5052257;28;20194;-74
2022/07/18 06:33:55;;;;;;;1999.90;999.90;;;24.50;82.60;;;;;;5031915;28;20029;-75
2022/07/18 06:36:23;;;;;;;1999.90;999.90;;;24.60;81.90;;;;;;5049771;28;20052;-74
2022/07/18 06:38:50;;;;;;;1999.90;999.90;;;24.80;81.70;;;;;;5052953;28;20016;-74
2022/07/18 06:41:17;;;;;;;1999.90;999.90;;;24.90;81.50;;;;;;5036966;28;20100;-74
2022/07/18 06:43:44;;;;;;;1999.90;999.90;;;25.00;81.30;;;;;;5054335;28;20028;-74
2022/07/18 06:46:10;;;;;;;1999.90;999.90;;;25.10;80.70;;;;;;5053330;28;20112;-74
2022/07/18 06:48:36;;;;;;;1999.90;999.90;;;25.20;80.40;;;;;;5053138;28;20084;-76
2022/07/18 06:51:04;;;;;;;1999.90;999.90;;;25.30;80.50;;;;;;5050074;28;20059;-74
2022/07/18 06:53:30;;;;;;;1999.90;999.90;;;25.50;80.20;;;;;;5063607;28;20042;-74
2022/07/18 06:55:57;;;;;;;1999.90;999.90;;;25.60;80.10;;;;;;5054204;28;20202;-74
2022/07/18 06:58:23;;;;;;;1999.90;999.90;;;25.70;79.90;;;;;;5053118;28;20506;-74
2022/07/18 07:00:50;;;;;;;1999.90;999.90;;;25.80;79.90;;;;;;5052529;28;20018;-75
2022/07/18 07:03:16;;;;;;;1999.90;999.90;;;26.00;79.50;;;;;;5051258;28;20029;-74
2022/07/18 07:05:42;;;;;;;1999.90;999.90;;;26.10;79.40;;;;;;5034329;28;20110;-74
2022/07/18 07:08:08;;;;;;;1999.90;999.90;;;26.20;78.90;;;;;;5036423;28;20063;-74
2022/07/18 07:10:35;;;;;;;1999.90;999.90;;;26.40;78.80;;;;;;5054154;28;20037;-74
2022/07/18 07:13:00;;;;;;;1999.90;999.90;;;26.50;78.30;;;;;;5043938;28;20025;-74
2022/07/18 07:15:26;;;;;;;1999.90;999.90;;;26.60;78.00;;;;;;5043442;28;20462;-75
2022/07/18 07:17:52;;;;;;;1999.90;999.90;;;26.80;77.90;;;;;;5053229;28;20060;-75
2022/07/18 07:20:20;;;;;;;1999.90;999.90;;;27.00;77.50;;;;;;5060560;28;20025;-74
2022/07/18 07:22:52;;;;;;;1999.90;999.90;;;27.10;77.10;;;;;;5033516;28;20035;-75
2022/07/18 07:25:21;;;;;;;1999.90;999.90;;;27.30;76.80;;;;;;5053250;28;20064;-75
2022/07/18 07:27:47;;;;;;;1999.90;999.90;;;27.50;76.80;;;;;;5052632;28;20102;-74
2022/07/18 07:30:15;;;;;;;1999.90;999.90;;;27.70;76.70;;;;;;5029922;28;20416;-74
2022/07/18 07:32:43;;;;;;;1999.90;999.90;;;27.90;75.80;;;;;;5033681;28;20053;-74
2022/07/18 07:35:13;;;;;;;1999.90;999.90;;;28.20;76.10;;;;;;5033018;28;20091;-74
2022/07/18 07:37:41;;;;;;;1999.90;999.90;;;28.40;75.30;;;;;;5032949;28;20035;-75
2022/07/18 07:40:07;;;;;;;1999.90;999.90;;;28.60;75.30;;;;;;5033354;28;20256;-74
2022/07/18 07:42:34;;;;;;;1999.90;999.90;;;29.00;74.50;;;;;;5033495;28;20108;-74
2022/07/18 07:45:00;;;;;;;1999.90;999.90;;;30.20;73.40;;;;;;5031563;28;20037;-76
2022/07/18 07:47:25;;;;;;;1999.90;999.90;;;32.50;70.00;;;;;;5033087;28;20106;-72
2022/07/18 07:49:52;;;;;;;1999.90;999.90;;;34.10;67.50;;;;;;5032459;28;20154;-72
2022/07/18 07:52:19;;;;;;;1999.90;999.90;;;35.00;65.80;;;;;;5027890;28;20105;-73
2022/07/18 07:54:45;;;;;;;1999.90;999.90;;;35.90;65.00;;;;;;5032877;28;20026;-74
2022/07/18 07:57:11;;;;;;;1999.90;999.90;;;36.20;64.20;;;;;;5031574;28;20021;-72
2022/07/18 07:59:37;;;;;;;1999.90;999.90;;;36.50;64.00;;;;;;5032786;28;20037;-74
2022/07/18 08:02:03;;;;;;;1999.90;999.90;;;36.80;63.20;;;;;;5036021;28;20438;-73
2022/07/18 08:04:30;;;;;;;1999.90;999.90;;;36.80;63.20;;;;;;5030261;28;20088;-74
2022/07/18 08:06:56;;;;;;;1999.90;999.90;;;37.40;63.00;;;;;;5028298;28;20396;-74
2022/07/18 08:09:22;;;;;;;1999.90;999.90;;;38.00;62.00;;;;;;5033233;28;20025;-73
2022/07/18 08:11:48;;;;;;;1999.90;999.90;;;38.30;61.90;;;;;;5033185;28;20040;-73
2022/07/18 08:14:14;;;;;;;1999.90;999.90;;;38.30;61.40;;;;;;5033368;28;20034;-73
2022/07/18 08:16:40;;;;;;;1999.90;999.90;;;38.60;61.20;;;;;;5031609;28;20045;-74
2022/07/18 08:19:06;;;;;;;1999.90;999.90;;;39.00;61.30;;;;;;5032978;28;20056;-74
2022/07/18 08:21:32;;;;;;;1999.90;999.90;;;39.40;60.70;;;;;;5033081;28;20500;-73
2022/07/18 08:23:57;;;;;;;1999.90;999.90;;;39.80;60.40;;;;;;5032566;28;20022;-74
2022/07/18 08:26:24;;;;;;;1999.90;999.90;;;40.10;60.30;;;;;;5032937;28;20033;-73
2022/07/18 08:28:49;;;;;;;1999.90;999.90;;;39.90;60.30;;;;;;5033017;28;20021;-73
2022/07/18 08:31:18;;;;;;;1999.90;999.90;;;39.90;60.50;;;;;;5048475;28;20033;-75
2022/07/18 08:33:44;;;;;;;1999.90;999.90;;;40.60;59.90;;;;;;5049719;28;20040;-74
2022/07/18 08:36:10;;;;;;;1999.90;999.90;;;41.20;60.10;;;;;;5048125;28;20020;-73
2022/07/18 08:38:37;;;;;;;1999.90;999.90;;;40.80;59.50;;;;;;5057661;28;20496;-74
2022/07/18 08:41:04;;;;;;;1999.90;999.90;;;40.80;59.90;;;;;;5046850;28;20039;-74
2022/07/18 08:43:30;;;;;;;1999.90;999.90;;;41.20;59.10;;;;;;5034285;28;20039;-74
2022/07/18 08:46:02;;;;;;;1999.90;999.90;;;41.00;59.20;;;;;;5052509;28;20029;-73
2022/07/18 08:48:28;;;;;;;1999.90;999.90;;;41.70;59.20;;;;;;5052563;28;20065;-74
2022/07/18 08:50:54;;;;;;;1999.90;999.90;;;42.30;58.70;;;;;;5033397;28;20396;-74
2022/07/18 08:53:20;;;;;;;1999.90;999.90;;;42.80;58.50;;;;;;5051896;28;20037;-75
2022/07/18 08:55:48;;;;;;;1999.90;999.90;;;42.70;58.20;;;;;;5052840;28;20106;-74
2022/07/18 08:58:17;;;;;;;1999.90;999.90;;;42.70;58.00;;;;;;5049575;28;20037;-75
2022/07/18 09:00:44;;;;;;;1999.90;999.90;;;43.50;58.00;;;;;;5033645;28;20028;-75
2022/07/18 09:03:10;;;;;;;1999.90;999.90;;;43.20;57.60;;;;;;5048772;28;20060;-74
2022/07/18 09:05:37;;;;;;;1999.90;999.90;;;42.70;57.90;;;;;;5046630;28;20024;-74
2022/07/18 09:08:16;;;;;;;1999.90;999.90;;;42.20;58.10;;;;;;5051818;28;20070;-75
2022/07/18 09:10:51;;;;;;;1999.90;999.90;;;43.20;58.00;;;;;;5050834;28;20025;-75
2022/07/18 09:13:18;;;;;;;1999.90;999.90;;;43.60;57.70;;;;;;5051760;28;20031;-75
2022/07/18 09:16:03;;;;;;;1999.90;999.90;;;44.10;57.60;;;;;;5050900;28;20082;-74
2022/07/18 09:18:34;;;;;;;1999.90;999.90;;;43.60;56.50;;;;;;5051278;28;20087;-74
2022/07/18 09:21:04;;;;;;;1999.90;999.90;;;43.10;56.90;;;;;;5051062;28;20031;-74
2022/07/18 09:23:32;;;;;;;1999.90;999.90;;;43.40;57.20;;;;;;5061602;28;20028;-75
2022/07/18 09:26:02;;;;;;;1999.90;999.90;;;43.70;57.10;;;;;;5050551;28;20049;-75
2022/07/18 09:28:29;;;;;;;1999.90;999.90;;;44.40;57.00;;;;;;5051788;28;20017;-74
2022/07/18 09:30:57;;;;;;;1999.90;999.90;;;44.70;56.80;;;;;;5048715;28;20087;-74
2022/07/18 09:33:23;;;;;;;1999.90;999.90;;;44.80;56.30;;;;;;5046405;28;20038;-74
2022/07/18 09:35:53;;;;;;;1999.90;999.90;;;44.80;56.20;;;;;;5048539;28;20029;-75
2022/07/18 09:38:28;;;;;;;1999.90;999.90;;;45.10;56.20;;;;;;5051190;28;20435;-75
2022/07/18 09:40:57;;;;;;;1999.90;999.90;;;45.20;56.60;;;;;;5032398;28;20025;-74
2022/07/18 09:43:25;;;;;;;1999.90;999.90;;;45.30;56.30;;;;;;5050866;28;20040;-74
2022/07/18 09:45:56;;;;;;;1999.90;999.90;;;45.20;56.50;;;;;;5047854;28;20064;-74
2022/07/18 09:48:26;;;;;;;1999.90;999.90;;;45.10;56.40;;;;;;5048540;28;20420;-75
2022/07/18 09:50:55;;;;;;;1999.90;999.90;;;44.80;56.20;;;;;;5049044;28;20104;-75
2022/07/18 09:53:25;;;;;;;1999.90;999.90;;;44.60;56.30;;;;;;5051867;28;20503;-76
2022/07/18 09:55:54;;;;;;;1999.90;999.90;;;44.00;56.20;;;;;;5057075;28;20037;-74
2022/07/18 09:58:26;;;;;;;1999.90;999.90;;;44.40;56.20;;;;;;5057165;28;20031;-74
2022/07/18 10:00:53;;;;;;;1999.90;999.90;;;44.60;56.20;;;;;;5056115;28;20025;-75
2022/07/18 10:03:20;;;;;;;1999.90;999.90;;;44.50;56.10;;;;;;5054201;28;20480;-75
2022/07/18 10:05:48;;;;;;;1999.90;999.90;;;44.60;56.60;;;;;;5056054;28;20028;-75
2022/07/18 10:08:17;;;;;;;1999.90;999.90;;;45.10;56.70;;;;;;5057055;28;20063;-75
2022/07/18 10:10:44;;;;;;;1999.90;999.90;;;45.00;56.00;;;;;;5039525;28;20116;-75
2022/07/18 10:13:11;;;;;;;1999.90;999.90;;;45.00;55.90;;;;;;5058013;28;20512;-75
2022/07/18 10:15:40;;;;;;;1999.90;999.90;;;45.00;56.00;;;;;;5055803;28;20147;-76
2022/07/18 10:18:09;;;;;;;1999.90;999.90;;;45.10;56.00;;;;;;5056215;28;20033;-75
2022/07/18 10:20:44;;;;;;;1999.90;999.90;;;44.80;55.90;;;;;;5052123;28;20104;-75
2022/07/18 10:23:18;;;;;;;1999.90;999.90;;;44.80;56.40;;;;;;5058064;28;20466;-75
2022/07/18 10:25:45;;;;;;;1999.90;999.90;;;44.70;56.20;;;;;;5057326;28;20025;-74
2022/07/18 10:28:14;;;;;;;1999.90;999.90;;;44.90;56.40;;;;;;5058021;28;20095;-76
2022/07/18 10:30:43;;;;;;;1999.90;999.90;;;45.20;56.30;;;;;;5057286;28;20067;-76
2022/07/18 10:33:38;;;;;;;1999.90;999.90;;;44.90;56.40;;;;;;5054812;28;20032;-75
2022/07/18 10:36:06;;;;;;;1999.90;999.90;;;44.50;56.20;;;;;;5057011;28;20032;-76
2022/07/18 10:38:32;;;;;;;1999.90;999.90;;;44.30;55.90;;;;;;5039792;28;20095;-75
2022/07/18 10:41:03;;;;;;;1999.90;999.90;;;43.90;56.40;;;;;;5055866;28;20035;-77
2022/07/18 10:43:32;;;;;;;1999.90;999.90;;;43.50;55.40;;;;;;5052620;28;20021;-76
2022/07/18 10:46:02;;;;;;;1999.90;999.90;;;43.00;56.90;;;;;;5057288;28;20021;-76
2022/07/18 10:48:37;;;;;;;1999.90;999.90;;;43.40;56.40;;;;;;5051668;28;20526;-76
2022/07/18 10:51:07;;;;;;;1999.90;999.90;;;43.60;56.30;;;;;;5055076;28;20110;-75
2022/07/18 10:57:32;;;;;;;1999.90;999.90;;;43.90;55.40;;;;;;5048862;28;20525;-77
2022/07/18 11:00:35;;;;;;;1999.90;999.90;;;43.60;54.40;;;;;;5054778;28;20040;-76
2022/07/18 11:06:10;;;;;;;1999.90;999.90;;;43.40;55.80;;;;;;5051149;28;20044;-77
2022/07/18 11:08:36;;;;;;;1999.90;999.90;;;43.20;55.90;;;;;;5053496;28;20025;-75
2022/07/18 11:11:01;;;;;;;1999.90;999.90;;;43.70;55.90;;;;;;5053478;28;20056;-75
2022/07/18 11:13:27;;;;;;;1999.90;999.90;;;44.20;56.10;;;;;;5054133;28;20025;-75
2022/07/18 11:15:58;;;;;;;1999.90;999.90;;;44.60;55.00;;;;;;5052573;28;20131;-75
2022/07/18 11:18:25;;;;;;;1999.90;999.90;;;44.50;54.70;;;;;;5052546;28;20060;-75
2022/07/18 11:20:52;;;;;;;1999.90;999.90;;;44.20;54.80;;;;;;5053201;28;20060;-76
2022/07/18 11:23:22;;;;;;;1999.90;999.90;;;;;;;;;;5053203;28;20035;-75
2022/07/18 11:25:54;;;;;;;1999.90;999.90;;;44.60;54.60;;;;;;5034426;28;20068;-75
2022/07/18 11:28:20;;;;;;;1999.90;999.90;;;44.70;54.60;;;;;;5054065;28;20025;-75
2022/07/18 11:30:58;;;;;;;1999.90;999.90;;;44.70;54.20;;;;;;5051670;28;20055;-75
2022/07/18 11:33:29;;;;;;;1999.90;999.90;;;44.30;53.80;;;;;;5050896;28;20361;-76
2022/07/18 11:36:06;;;;;;;1999.90;999.90;;;44.20;54.20;;;;;;5053634;28;20103;-76
2022/07/18 11:38:33;;;;;;;1999.90;999.90;;;44.30;53.90;;;;;;5054105;28;20039;-76
2022/07/18 11:40:58;;;;;;;1999.90;999.90;;;43.60;53.40;;;;;;5057747;28;20036;-76
2022/07/18 11:43:26;;;;;;;1999.90;999.90;;;43.80;53.90;;;;;;5037882;28;20029;-76
2022/07/18 11:46:06;;;;;;;1999.90;999.90;;;43.80;54.10;;;;;;5050134;28;20106;-77
2022/07/18 11:48:33;;;;;;;1999.90;999.90;;;43.50;53.90;;;;;;5046152;28;20021;-76
2022/07/18 11:50:59;;;;;;;1999.90;999.90;;;43.30;54.50;;;;;;5033741;28;20032;-75
2022/07/18 11:53:25;;;;;;;1999.90;999.90;;;43.20;54.70;;;;;;5052452;28;20040;-75
2022/07/18 11:55:53;;;;;;;1999.90;999.90;;;43.20;55.40;;;;;;5053058;28;20036;-75
2022/07/18 11:58:19;;;;;;;1999.90;999.90;;;42.30;55.30;;;;;;5052623;28;20033;-75
2022/07/18 12:00:46;;;;;;;1999.90;999.90;;;42.30;55.40;;;;;;5052348;28;20043;-75
2022/07/18 12:03:15;;;;;;;1999.90;999.90;;;42.90;56.30;;;;;;5050944;28;20025;-75
2022/07/18 12:05:50;;;;;;;1999.90;999.90;;;42.90;55.10;;;;;;5052244;28;20025;-75